createdAt,value
2023-12-20T00:01:45.685Z,13.10
2023-12-20T00:04:36.106Z,14.10
2023-12-20T00:10:48.069Z,13.60
2023-12-20T00:13:16.290Z,15.10
2023-12-20T00:15:47.431Z,9.20
2023-12-20T00:18:15.671Z,7.50
2023-12-20T00:20:46.419Z,9.70
2023-12-20T00:23:14.460Z,15.30
2023-12-20T00:25:42.351Z,8.00
2023-12-20T00:28:11.504Z,7.80
2023-12-20T00:30:39.861Z,14.80
2023-12-20T00:33:08.043Z,10.80
2023-12-20T00:35:36.180Z,7.90
2023-12-20T00:38:06.309Z,9.30
2023-12-20T00:40:34.730Z,9.90
2023-12-20T00:43:02.864Z,8.20
2023-12-20T00:45:40.112Z,9.00
2023-12-20T00:48:08.517Z,9.10
2023-12-20T00:50:36.725Z,6.00
2023-12-20T00:53:07.031Z,6.10
2023-12-20T00:55:35.091Z,7.80
2023-12-20T00:58:04.107Z,6.70
2023-12-20T01:00:32.083Z,7.20
2023-12-20T01:03:00.218Z,7.60
2023-12-20T01:05:28.542Z,8.50
2023-12-20T01:07:56.646Z,6.30
2023-12-20T01:10:24.855Z,9.90
2023-12-20T01:12:55.313Z,6.20
2023-12-20T01:15:23.379Z,4.90
2023-12-20T01:17:51.478Z,5.20
2023-12-20T01:20:21.441Z,7.00
2023-12-20T01:22:49.709Z,6.40
2023-12-20T01:25:17.782Z,4.90
2023-12-20T01:27:54.053Z,5.90
2023-12-20T01:30:22.066Z,5.00
2023-12-20T01:32:51.902Z,5.80
2023-12-20T01:35:20.074Z,4.00
2023-12-20T01:37:48.384Z,5.80
2023-12-20T01:40:20.971Z,4.80
2023-12-20T01:42:49.232Z,3.80
2023-12-20T01:45:18.256Z,4.10
2023-12-20T01:47:46.583Z,4.30
2023-12-20T01:50:17.867Z,5.90
2023-12-20T01:52:46.399Z,8.00
2023-12-20T01:55:16.659Z,4.30
2023-12-20T01:57:50.862Z,4.80
2023-12-20T02:00:23.874Z,5.30
2023-12-20T02:02:52.005Z,3.60
2023-12-20T02:09:07.822Z,4.40
2023-12-20T02:11:42.053Z,5.10
2023-12-20T02:14:10.214Z,3.90
2023-12-20T02:16:39.340Z,5.80
2023-12-20T02:19:11.446Z,4.20
2023-12-20T02:21:42.570Z,4.00
2023-12-20T02:24:12.027Z,5.10
2023-12-20T02:26:40.193Z,6.90
2023-12-20T02:29:08.394Z,5.90
2023-12-20T02:31:36.445Z,2.40
2023-12-20T02:34:04.746Z,3.90
2023-12-20T02:36:35.753Z,6.80
2023-12-20T02:39:04.076Z,4.60
2023-12-20T02:41:34.541Z,5.90
2023-12-20T02:44:05.124Z,3.90
2023-12-20T02:46:33.133Z,4.20
2023-12-20T02:49:01.133Z,2.50
2023-12-20T02:51:30.463Z,4.80
2023-12-20T02:54:00.618Z,2.20
2023-12-20T02:56:28.607Z,3.90
2023-12-20T02:59:02.465Z,3.80
2023-12-20T03:01:31.740Z,3.60
2023-12-20T03:03:59.912Z,2.40
2023-12-20T03:06:33.468Z,2.90
2023-12-20T03:09:01.517Z,1.60
2023-12-20T03:11:30.020Z,3.60
2023-12-20T03:13:58.442Z,6.20
2023-12-20T03:16:27.613Z,2.40
2023-12-20T03:18:58.255Z,3.70
2023-12-20T03:21:26.476Z,2.90
2023-12-20T03:24:01.428Z,5.70
2023-12-20T03:26:31.553Z,2.40
2023-12-20T03:28:59.469Z,4.50
2023-12-20T03:31:27.643Z,4.70
2023-12-20T03:37:24.582Z,4.40
2023-12-20T03:40:09.470Z,4.10
2023-12-20T03:42:37.615Z,4.40
2023-12-20T03:45:05.943Z,5.00
2023-12-20T03:47:34.000Z,7.20
2023-12-20T03:50:02.158Z,3.80
2023-12-20T03:52:32.221Z,8.50
2023-12-20T03:55:00.210Z,7.50
2023-12-20T03:57:28.250Z,4.20
2023-12-20T03:59:56.225Z,5.70
2023-12-20T04:02:26.363Z,4.80
2023-12-20T04:04:54.514Z,3.10
2023-12-20T04:07:22.802Z,3.00
2023-12-20T04:09:53.662Z,3.60
2023-12-20T04:12:21.723Z,4.20
2023-12-20T04:14:52.592Z,4.10
2023-12-20T04:17:25.932Z,4.70
2023-12-20T04:19:54.045Z,3.50
2023-12-20T04:22:22.348Z,3.90
2023-12-20T04:25:13.989Z,4.10
2023-12-20T04:27:54.786Z,4.40
2023-12-20T04:30:49.250Z,5.00
2023-12-20T04:33:17.394Z,4.40
2023-12-20T04:35:47.007Z,4.60
2023-12-20T04:38:17.278Z,3.30
2023-12-20T04:40:45.276Z,2.30
2023-12-20T04:43:13.362Z,2.70
2023-12-20T04:45:44.210Z,5.30
2023-12-20T04:48:12.325Z,3.60
2023-12-20T04:50:40.685Z,4.70
2023-12-20T04:53:10.225Z,3.70
2023-12-20T04:55:38.425Z,3.00
2023-12-20T04:58:06.457Z,2.20
2023-12-20T05:00:37.075Z,6.10
2023-12-20T05:03:10.949Z,3.90
2023-12-20T05:05:41.559Z,5.30
2023-12-20T05:08:09.780Z,2.90
2023-12-20T05:11:38.968Z,4.80
2023-12-20T05:14:21.169Z,14.00
2023-12-20T05:16:56.106Z,3.30
2023-12-20T05:19:27.116Z,8.60
2023-12-20T05:21:56.288Z,2.70
2023-12-20T05:24:28.509Z,5.90
2023-12-20T05:26:57.687Z,5.20
2023-12-20T05:29:27.517Z,5.40
2023-12-20T05:32:00.256Z,6.20
2023-12-20T05:34:29.928Z,3.30
2023-12-20T05:36:58.952Z,6.00
2023-12-20T05:39:27.090Z,4.90
2023-12-20T05:41:55.262Z,2.40
2023-12-20T05:44:23.369Z,3.60
2023-12-20T05:46:51.701Z,3.10
2023-12-20T05:49:25.059Z,3.70
2023-12-20T05:51:53.242Z,4.20
2023-12-20T05:54:22.995Z,3.60
2023-12-20T05:56:51.921Z,5.00
2023-12-20T05:59:25.181Z,1.80
2023-12-20T06:01:53.472Z,4.20
2023-12-20T06:04:23.699Z,3.30
2023-12-20T06:06:52.279Z,3.20
2023-12-20T06:09:20.831Z,2.60
2023-12-20T06:11:48.844Z,3.00
2023-12-20T06:14:16.885Z,2.70
2023-12-20T06:16:50.414Z,2.80
2023-12-20T06:19:18.647Z,3.20
2023-12-20T06:21:46.843Z,7.90
2023-12-20T06:24:15.333Z,4.60
2023-12-20T06:26:46.366Z,4.70
2023-12-20T06:29:14.505Z,4.40
2023-12-20T06:31:42.578Z,6.20
2023-12-20T06:34:11.960Z,4.00
2023-12-20T06:36:40.302Z,3.70
2023-12-20T06:39:10.050Z,4.20
2023-12-20T06:41:42.307Z,3.20
2023-12-20T06:44:10.439Z,6.80
2023-12-20T06:46:38.481Z,5.60
2023-12-20T06:49:07.773Z,5.30
2023-12-20T06:51:38.674Z,4.50
2023-12-20T06:54:06.860Z,5.30
2023-12-20T06:56:38.111Z,5.80
2023-12-20T06:59:11.541Z,6.40
2023-12-20T07:01:39.714Z,5.40
2023-12-20T07:04:09.797Z,5.10
2023-12-20T07:06:37.835Z,4.90
2023-12-20T07:09:06.357Z,5.70
2023-12-20T07:11:37.105Z,4.90
2023-12-20T07:14:07.295Z,5.00
2023-12-20T07:16:36.196Z,4.00
2023-12-20T07:19:04.565Z,4.60
2023-12-20T07:21:32.760Z,7.30
2023-12-20T07:24:03.274Z,4.90
2023-12-20T07:26:31.526Z,5.90
2023-12-20T07:29:01.954Z,8.30
2023-12-20T07:31:30.019Z,7.30
2023-12-20T07:34:00.205Z,8.70
2023-12-20T07:36:28.327Z,10.70
2023-12-20T07:38:59.282Z,11.10
2023-12-20T07:41:29.811Z,13.90
2023-12-20T07:44:00.636Z,38.90
2023-12-20T07:46:29.066Z,15.20
2023-12-20T07:48:57.359Z,18.80
2023-12-20T07:51:25.343Z,12.30
2023-12-20T07:53:54.470Z,11.80
2023-12-20T07:56:22.550Z,15.70
2023-12-20T07:58:53.047Z,18.40
2023-12-20T08:01:23.149Z,20.50
2023-12-20T08:03:53.294Z,22.70
2023-12-20T08:06:22.648Z,20.50
2023-12-20T08:08:58.171Z,17.50
2023-12-20T08:11:30.734Z,11.30
2023-12-20T08:14:06.394Z,16.80
2023-12-20T08:16:36.933Z,16.10
2023-12-20T08:19:08.018Z,15.30
2023-12-20T08:21:38.530Z,17.80
2023-12-20T08:24:09.129Z,21.90
2023-12-20T08:26:37.367Z,23.00
2023-12-20T08:29:08.254Z,25.60
2023-12-20T08:31:41.543Z,17.80
2023-12-20T08:34:18.343Z,16.50
2023-12-20T08:36:46.336Z,17.30
2023-12-20T08:39:18.276Z,11.90
2023-12-20T08:41:48.895Z,11.20
2023-12-20T08:44:17.109Z,12.10
2023-12-20T08:46:45.207Z,12.30
2023-12-20T08:49:13.506Z,15.20
2023-12-20T08:51:42.711Z,16.90
2023-12-20T08:54:14.463Z,14.80
2023-12-20T08:56:45.266Z,18.40
2023-12-20T08:59:13.607Z,16.20
2023-12-20T09:01:46.365Z,15.70
2023-12-20T09:04:14.462Z,21.00
2023-12-20T09:06:48.286Z,22.40
2023-12-20T09:09:16.551Z,37.10
2023-12-20T09:11:47.435Z,17.90
2023-12-20T09:14:21.405Z,30.50
2023-12-20T09:16:52.040Z,23.60
2023-12-20T09:19:21.455Z,17.60
2023-12-20T09:21:49.766Z,15.90
2023-12-20T09:24:17.962Z,16.80
2023-12-20T09:26:48.814Z,19.90
2023-12-20T09:29:17.335Z,19.00
2023-12-20T09:31:45.941Z,17.60
2023-12-20T09:34:16.186Z,22.70
2023-12-20T09:36:50.232Z,22.20
2023-12-20T09:39:21.826Z,32.10
2023-12-20T09:42:08.155Z,32.50
2023-12-20T09:44:44.764Z,35.50
2023-12-20T09:47:22.120Z,22.30
2023-12-20T09:49:56.133Z,21.80
2023-12-20T09:52:25.496Z,31.30
2023-12-20T09:54:56.597Z,30.50
2023-12-20T09:57:24.863Z,23.50
2023-12-20T09:59:52.994Z,25.30
2023-12-20T10:02:26.439Z,22.80
2023-12-20T10:04:58.305Z,23.20
2023-12-20T10:07:26.629Z,27.50
2023-12-20T10:09:57.636Z,22.90
2023-12-20T10:12:28.204Z,24.00
2023-12-20T10:14:59.135Z,27.00
2023-12-20T10:17:30.428Z,24.00
2023-12-20T10:19:59.665Z,22.40
2023-12-20T10:22:28.239Z,22.10
2023-12-20T10:25:01.912Z,21.00
2023-12-20T10:27:31.226Z,26.00
2023-12-20T10:29:59.967Z,31.30
2023-12-20T10:32:29.581Z,32.40
2023-12-20T10:35:02.243Z,22.70
2023-12-20T10:37:33.482Z,19.90
2023-12-20T10:40:04.372Z,13.60
2023-12-20T10:42:37.354Z,16.20
2023-12-20T10:45:05.855Z,15.50
2023-12-20T10:47:34.351Z,9.50
2023-12-20T10:50:06.386Z,13.40
2023-12-20T10:52:35.842Z,14.20
2023-12-20T10:55:03.998Z,15.40
2023-12-20T10:57:32.140Z,23.80
2023-12-20T11:00:05.922Z,24.00
2023-12-20T11:02:33.973Z,18.60
2023-12-20T11:05:12.095Z,23.70
2023-12-20T11:07:44.952Z,29.70
2023-12-20T11:10:20.362Z,15.20
2023-12-20T11:12:50.268Z,15.80
2023-12-20T11:15:18.742Z,25.00
2023-12-20T11:17:52.498Z,23.70
2023-12-20T11:20:24.027Z,23.30
2023-12-20T11:23:01.806Z,24.00
2023-12-20T11:25:46.934Z,13.40
2023-12-20T11:28:14.956Z,24.20
2023-12-20T11:30:44.516Z,29.90
2023-12-20T11:35:47.128Z,21.00
2023-12-20T11:38:15.468Z,18.30
2023-12-20T11:40:44.955Z,36.10
2023-12-20T11:43:13.137Z,37.10
2023-12-20T11:45:51.557Z,32.00
2023-12-20T11:48:19.953Z,31.40
2023-12-20T11:50:48.160Z,19.60
2023-12-20T11:53:20.735Z,25.40
2023-12-20T11:55:49.968Z,24.10
2023-12-20T11:58:19.596Z,25.00
2023-12-20T12:00:53.755Z,23.70
2023-12-20T12:03:25.047Z,21.90
2023-12-20T12:05:53.273Z,25.00
2023-12-20T12:08:24.984Z,21.50
2023-12-20T12:10:58.045Z,24.30
2023-12-20T12:13:28.648Z,24.10
2023-12-20T12:15:57.200Z,32.90
2023-12-20T12:18:29.070Z,33.10
2023-12-20T12:21:10.607Z,22.00
2023-12-20T12:23:47.578Z,25.10
2023-12-20T12:26:15.658Z,24.10
2023-12-20T12:28:49.301Z,29.50
2023-12-20T12:31:17.646Z,25.20
2023-12-20T12:33:47.331Z,45.90
2023-12-20T12:36:19.014Z,40.90
2023-12-20T12:38:47.138Z,36.10
2023-12-20T12:41:16.497Z,40.30
2023-12-20T12:43:44.694Z,34.00
2023-12-20T12:46:14.056Z,32.60
2023-12-20T12:48:44.923Z,40.70
2023-12-20T12:51:54.220Z,28.40
2023-12-20T12:54:58.270Z,31.10
2023-12-20T12:57:37.955Z,28.10
2023-12-20T13:00:11.402Z,23.70
2023-12-20T13:02:43.071Z,22.50
2023-12-20T13:05:14.279Z,20.60
2023-12-20T13:07:42.601Z,19.50
2023-12-20T13:10:12.045Z,32.60
2023-12-20T13:12:40.352Z,38.80
2023-12-20T13:15:15.578Z,37.50
2023-12-20T13:17:47.848Z,35.80
2023-12-20T13:20:19.194Z,37.70
2023-12-20T13:22:49.891Z,37.10
2023-12-20T13:25:21.032Z,34.90
2023-12-20T13:27:54.496Z,32.90
2023-12-20T13:30:22.669Z,34.30
2023-12-20T13:32:50.918Z,31.00
2023-12-20T13:35:21.779Z,32.10
2023-12-20T13:37:52.269Z,44.50
2023-12-20T13:40:45.072Z,40.90
2023-12-20T13:44:21.181Z,38.80
2023-12-20T13:47:02.857Z,41.10
2023-12-20T13:49:33.377Z,40.80
2023-12-20T13:52:01.525Z,40.70
2023-12-20T13:54:29.699Z,46.10
2023-12-20T13:57:09.166Z,54.20
2023-12-20T13:59:46.714Z,47.50
2023-12-20T14:02:14.950Z,49.70
2023-12-20T14:04:44.048Z,73.30
2023-12-20T14:09:47.342Z,50.50
2023-12-20T14:12:16.009Z,41.90
2023-12-20T14:14:46.350Z,54.60
2023-12-20T14:17:16.713Z,54.20
2023-12-20T14:19:46.607Z,45.40
2023-12-20T14:22:18.277Z,39.40
2023-12-20T14:24:47.071Z,50.70
2023-12-20T14:27:15.119Z,42.50
2023-12-20T14:29:46.976Z,44.50
2023-12-20T14:32:16.467Z,41.40
2023-12-20T14:34:44.748Z,55.20
2023-12-20T14:37:14.226Z,51.20
2023-12-20T14:39:42.956Z,91.00
2023-12-20T14:42:15.559Z,69.10
2023-12-20T14:44:46.652Z,120.10
2023-12-20T14:47:16.182Z,83.60
2023-12-20T14:49:44.390Z,98.10
2023-12-20T14:52:12.674Z,101.80
2023-12-20T14:54:44.689Z,166.10
2023-12-20T14:57:12.779Z,92.10
2023-12-20T14:59:44.747Z,73.20
2023-12-20T15:02:13.002Z,115.60
2023-12-20T15:04:42.067Z,79.90
2023-12-20T15:07:10.267Z,76.70
2023-12-20T15:09:42.909Z,54.80
2023-12-20T15:12:16.198Z,57.10
2023-12-20T15:14:49.962Z,50.50
2023-12-20T15:17:19.476Z,62.50
2023-12-20T15:19:47.703Z,61.00
2023-12-20T15:22:21.204Z,109.50
2023-12-20T15:24:49.598Z,170.30
2023-12-20T15:27:25.381Z,95.90
2023-12-20T15:29:54.040Z,61.40
2023-12-20T15:32:24.782Z,52.80
2023-12-20T15:34:56.454Z,44.50
2023-12-20T15:37:28.628Z,49.10
2023-12-20T15:39:56.936Z,38.60
2023-12-20T15:42:25.228Z,41.40
2023-12-20T15:44:53.234Z,44.60
2023-12-20T15:47:24.687Z,52.80
2023-12-20T15:49:52.836Z,52.20
2023-12-20T15:52:22.117Z,49.50
2023-12-20T15:54:50.695Z,52.70
2023-12-20T15:57:20.205Z,47.00
2023-12-20T15:59:52.454Z,50.90
2023-12-20T16:02:20.841Z,47.00
2023-12-20T16:04:51.461Z,54.20
2023-12-20T16:07:22.686Z,180.40
2023-12-20T16:09:51.821Z,125.40
2023-12-20T16:12:22.338Z,83.80
2023-12-20T16:14:52.785Z,63.20
2023-12-20T16:17:23.151Z,56.30
2023-12-20T16:22:23.497Z,57.60
2023-12-20T16:24:53.007Z,43.60
2023-12-20T16:27:21.160Z,44.80
2023-12-20T16:29:56.250Z,53.80
2023-12-20T16:32:24.286Z,45.80
2023-12-20T16:34:54.936Z,46.20
2023-12-20T16:37:42.820Z,54.40
2023-12-20T16:43:17.986Z,49.90
2023-12-20T16:45:46.103Z,45.40
2023-12-20T16:48:19.859Z,42.40
2023-12-20T16:50:47.955Z,38.10
2023-12-20T16:53:16.772Z,45.00
2023-12-20T16:55:57.333Z,42.50
2023-12-20T16:58:44.920Z,56.10
2023-12-20T17:04:14.864Z,37.70
2023-12-20T17:06:46.306Z,51.60
2023-12-20T17:09:14.314Z,61.30
2023-12-20T17:11:44.173Z,54.80
2023-12-20T17:14:14.219Z,55.50
2023-12-20T17:16:42.333Z,46.80
2023-12-20T17:19:10.743Z,39.40
2023-12-20T17:21:39.073Z,36.80
2023-12-20T17:24:10.285Z,41.40
2023-12-20T17:26:39.717Z,37.00
2023-12-20T17:29:07.828Z,39.90
2023-12-20T17:31:37.522Z,44.50
2023-12-20T17:34:10.575Z,50.50
2023-12-20T17:36:41.601Z,44.30
2023-12-20T17:39:09.731Z,43.40
2023-12-20T17:41:40.168Z,42.80
2023-12-20T17:44:08.411Z,43.10
2023-12-20T17:46:39.055Z,46.00
2023-12-20T17:49:10.291Z,35.10
2023-12-20T17:51:39.623Z,42.10
2023-12-20T17:54:11.584Z,65.10
2023-12-20T17:56:39.768Z,64.10
2023-12-20T17:59:07.785Z,64.10
2023-12-20T18:01:38.611Z,62.40
2023-12-20T18:04:09.482Z,69.80
2023-12-20T18:06:37.832Z,84.90
2023-12-20T18:09:08.007Z,82.00
2023-12-20T18:11:36.258Z,84.40
2023-12-20T18:14:12.740Z,91.30
2023-12-20T18:16:41.685Z,80.20
2023-12-20T18:19:12.748Z,76.90
2023-12-20T18:21:45.968Z,79.40
2023-12-20T18:24:19.549Z,84.30
2023-12-20T18:26:52.416Z,75.70
2023-12-20T18:29:20.698Z,84.90
2023-12-20T18:31:48.761Z,88.00
2023-12-20T18:34:16.826Z,83.90
2023-12-20T18:36:49.338Z,70.60
2023-12-20T18:39:17.488Z,69.10
2023-12-20T18:41:49.756Z,67.80
2023-12-20T18:44:18.202Z,67.90
2023-12-20T18:46:49.412Z,57.70
2023-12-20T18:49:18.173Z,59.70
2023-12-20T18:51:51.268Z,49.20
2023-12-20T18:54:19.421Z,56.80
2023-12-20T18:56:49.431Z,55.60
2023-12-20T18:59:23.409Z,58.00
2023-12-20T19:01:54.084Z,52.70
2023-12-20T19:04:22.186Z,58.80
2023-12-20T19:06:50.666Z,62.30
2023-12-20T19:09:20.938Z,58.00
2023-12-20T19:11:49.429Z,50.00
2023-12-20T19:14:17.441Z,50.40
2023-12-20T19:16:49.006Z,46.70
2023-12-20T19:19:17.778Z,46.10
2023-12-20T19:21:45.982Z,48.60
2023-12-20T19:24:16.610Z,50.60
2023-12-20T19:26:45.674Z,47.30
2023-12-20T19:29:13.831Z,51.10
2023-12-20T19:31:41.887Z,54.10
2023-12-20T19:34:10.254Z,56.80
2023-12-20T19:36:38.594Z,45.50
2023-12-20T19:39:06.653Z,44.00
2023-12-20T19:41:34.793Z,51.10
2023-12-20T19:44:03.997Z,53.30
2023-12-20T19:46:35.381Z,50.50
2023-12-20T19:49:05.015Z,52.50
2023-12-20T19:54:36.663Z,48.60
2023-12-20T19:57:19.390Z,49.70
2023-12-20T19:59:50.760Z,51.30
2023-12-20T20:02:19.208Z,53.10
2023-12-20T20:04:49.286Z,50.20
2023-12-20T20:07:24.379Z,50.70
2023-12-20T20:09:55.452Z,53.00
2023-12-20T20:12:25.899Z,58.90
2023-12-20T20:14:54.874Z,44.80
2023-12-20T20:17:23.235Z,50.10
2023-12-20T20:19:55.004Z,56.40
2023-12-20T20:22:26.425Z,55.10
2023-12-20T20:24:54.812Z,59.50
2023-12-20T20:27:23.301Z,49.60
2023-12-20T20:29:51.490Z,57.10
2023-12-20T20:32:19.546Z,52.40
2023-12-20T20:34:50.674Z,54.50
2023-12-20T20:37:23.770Z,54.70
2023-12-20T20:39:51.862Z,57.30
2023-12-20T20:42:20.028Z,59.90
2023-12-20T20:44:50.817Z,70.80
2023-12-20T20:47:19.902Z,59.00
2023-12-20T20:49:48.019Z,53.30
2023-12-20T20:52:22.132Z,72.40
2023-12-20T20:54:51.248Z,69.40
2023-12-20T20:57:19.352Z,60.40
2023-12-20T20:59:48.996Z,56.70
2023-12-20T21:02:17.479Z,71.10
2023-12-20T21:04:50.751Z,67.00
2023-12-20T21:07:19.637Z,70.20
2023-12-20T21:09:49.377Z,68.50
2023-12-20T21:12:17.519Z,55.70
2023-12-20T21:14:49.878Z,72.80
2023-12-20T21:17:18.098Z,67.80
2023-12-20T21:19:46.116Z,65.50
2023-12-20T21:22:14.500Z,72.80
2023-12-20T21:24:45.234Z,74.30
2023-12-20T21:27:13.475Z,81.20
2023-12-20T21:29:42.800Z,72.70
2023-12-20T21:32:10.758Z,81.00
2023-12-20T21:34:38.982Z,74.80
2023-12-20T21:37:07.239Z,81.30
2023-12-20T21:39:35.474Z,69.90
2023-12-20T21:42:06.428Z,66.50
2023-12-20T21:44:36.916Z,86.00
2023-12-20T21:47:05.216Z,63.10
2023-12-20T21:49:33.414Z,78.30
2023-12-20T21:52:01.729Z,64.50
2023-12-20T21:54:29.769Z,61.80
2023-12-20T21:56:57.861Z,61.50
2023-12-20T21:59:28.221Z,61.60
2023-12-20T22:01:59.248Z,60.90
2023-12-20T22:04:28.708Z,60.80
2023-12-20T22:06:56.670Z,66.00
2023-12-20T22:09:25.078Z,58.80
2023-12-20T22:11:53.323Z,59.10
2023-12-20T22:14:21.972Z,59.20
2023-12-20T22:16:52.841Z,56.20
2023-12-20T22:19:26.497Z,50.60
2023-12-20T22:21:56.972Z,51.90
2023-12-20T22:24:25.184Z,52.70
2023-12-20T22:26:54.814Z,54.70
2023-12-20T22:29:26.907Z,68.00
2023-12-20T22:32:00.238Z,57.30
2023-12-20T22:34:31.522Z,59.20
2023-12-20T22:37:02.812Z,60.90
2023-12-20T22:39:30.850Z,47.90
2023-12-20T22:42:04.074Z,49.70
2023-12-20T22:44:36.681Z,51.30
2023-12-20T22:47:11.593Z,44.10
2023-12-20T22:49:39.821Z,40.60
2023-12-20T22:52:10.958Z,53.20
2023-12-20T22:55:09.094Z,53.20
2023-12-20T22:58:11.046Z,46.40
2023-12-20T23:00:39.165Z,47.50
2023-12-20T23:03:10.260Z,46.90
2023-12-20T23:05:38.445Z,46.30
2023-12-20T23:08:08.760Z,49.30
2023-12-20T23:10:36.942Z,51.00
2023-12-20T23:13:05.514Z,47.90
2023-12-20T23:15:33.649Z,48.00
2023-12-20T23:18:01.968Z,49.10
2023-12-20T23:20:32.917Z,42.90
2023-12-20T23:23:03.641Z,46.20
2023-12-20T23:25:35.122Z,48.90
2023-12-20T23:28:06.456Z,41.70
2023-12-20T23:30:38.732Z,41.30
2023-12-20T23:33:07.154Z,40.90
2023-12-20T23:35:37.037Z,62.00
2023-12-20T23:38:05.188Z,77.90
2023-12-20T23:40:33.222Z,80.90
2023-12-20T23:43:01.392Z,46.00
2023-12-20T23:45:33.518Z,45.20
2023-12-20T23:48:04.273Z,40.90
2023-12-20T23:50:32.405Z,55.70
2023-12-20T23:53:00.589Z,55.00
2023-12-20T23:55:31.462Z,50.70
2023-12-20T23:58:04.557Z,48.70
